sensor_id;sensor_type;location;lat;lon;timestamp;temperature;humidity
6536;DHT22;34330;52.08032700;5.40923460;2023-07-31T00:00:13;19.60;92.10
6536;DHT22;34330;52.08032700;5.40923460;2023-07-31T00:02:42;19.60;92.40
6536;DHT22;34330;52.08032700;5.40923460;2023-07-31T00:05:10;19.60;92.20
6536;DHT22;34330;52.08032700;5.40923460;2023-07-31T00:07:38;19.60;92.60
6536;DHT22;34330;52.08032700;5.40923460;2023-07-31T00:10:10;19.50;92.90
6536;DHT22;34330;52.08032700;5.40923460;2023-07-31T00:12:38;19.60;92.90
6536;DHT22;34330;52.08032700;5.40923460;2023-07-31T00:15:08;19.60;92.90
6536;DHT22;34330;52.08032700;5.40923460;2023-07-31T00:17:36;19.70;92.80
6536;DHT22;34330;52.08032700;5.40923460;2023-07-31T00:20:06;19.70;92.70
6536;DHT22;34330;52.08032700;5.40923460;2023-07-31T00:22:36;19.70;92.70
6536;DHT22;34330;52.08032700;5.40923460;2023-07-31T00:25:04;19.80;93.00
6536;DHT22;34330;52.08032700;5.40923460;2023-07-31T00:27:35;19.70;92.60
6536;DHT22;34330;52.08032700;5.40923460;2023-07-31T00:30:03;19.80;92.70
6536;DHT22;34330;52.08032700;5.40923460;2023-07-31T00:32:32;19.80;92.70
6536;DHT22;34330;52.08032700;5.40923460;2023-07-31T00:35:00;19.80;92.80
6536;DHT22;34330;52.08032700;5.40923460;2023-07-31T00:37:29;19.80;92.90
6536;DHT22;34330;52.08032700;5.40923460;2023-07-31T00:39:57;19.80;93.00
6536;DHT22;34330;52.08032700;5.40923460;2023-07-31T00:42:26;19.80;93.00
6536;DHT22;34330;52.08032700;5.40923460;2023-07-31T00:44:56;19.80;93.10
6536;DHT22;34330;52.08032700;5.40923460;2023-07-31T00:47:26;19.80;93.30
6536;DHT22;34330;52.08032700;5.40923460;2023-07-31T00:49:55;19.90;93.30
6536;DHT22;34330;52.08032700;5.40923460;2023-07-31T00:52:23;19.90;93.50
6536;DHT22;34330;52.08032700;5.40923460;2023-07-31T00:54:52;19.90;93.70
6536;DHT22;34330;52.08032700;5.40923460;2023-07-31T00:57:21;19.90;93.80
6536;DHT22;34330;52.08032700;5.40923460;2023-07-31T00:59:48;20.00;93.80
6536;DHT22;34330;52.08032700;5.40923460;2023-07-31T01:02:17;20.00;93.90
6536;DHT22;34330;52.08032700;5.40923460;2023-07-31T01:04:46;20.00;94.20
6536;DHT22;34330;52.08032700;5.40923460;2023-07-31T01:07:18;20.10;94.00
6536;DHT22;34330;52.08032700;5.40923460;2023-07-31T01:09:56;20.10;94.10
6536;DHT22;34330;52.08032700;5.40923460;2023-07-31T01:12:27;20.10;94.10
6536;DHT22;34330;52.08032700;5.40923460;2023-07-31T01:15:04;20.10;93.80
6536;DHT22;34330;52.08032700;5.40923460;2023-07-31T01:17:33;20.20;94.20
6536;DHT22;34330;52.08032700;5.40923460;2023-07-31T01:20:02;20.20;93.80
6536;DHT22;34330;52.08032700;5.40923460;2023-07-31T01:22:49;20.20;93.90
6536;DHT22;34330;52.08032700;5.40923460;2023-07-31T01:25:35;20.20;94.20
6536;DHT22;34330;52.08032700;5.40923460;2023-07-31T01:28:12;20.20;94.10
6536;DHT22;34330;52.08032700;5.40923460;2023-07-31T01:30:44;20.20;94.00
6536;DHT22;34330;52.08032700;5.40923460;2023-07-31T01:33:15;20.20;94.00
6536;DHT22;34330;52.08032700;5.40923460;2023-07-31T01:35:45;20.20;93.90
6536;DHT22;34330;52.08032700;5.40923460;2023-07-31T01:38:14;20.20;94.00
6536;DHT22;34330;52.08032700;5.40923460;2023-07-31T01:40:42;20.20;93.90
6536;DHT22;34330;52.08032700;5.40923460;2023-07-31T01:43:11;20.20;94.00
6536;DHT22;34330;52.08032700;5.40923460;2023-07-31T01:45:40;20.20;94.00
6536;DHT22;34330;52.08032700;5.40923460;2023-07-31T01:48:08;20.20;93.90
6536;DHT22;34330;52.08032700;5.40923460;2023-07-31T01:50:36;20.20;93.90
6536;DHT22;34330;52.08032700;5.40923460;2023-07-31T01:53:03;20.20;94.10
6536;DHT22;34330;52.08032700;5.40923460;2023-07-31T01:55:31;20.20;94.10
6536;DHT22;34330;52.08032700;5.40923460;2023-07-31T01:57:59;20.20;94.10
6536;DHT22;34330;52.08032700;5.40923460;2023-07-31T02:00:29;20.20;94.10
6536;DHT22;34330;52.08032700;5.40923460;2023-07-31T02:02:58;20.20;94.10
6536;DHT22;34330;52.08032700;5.40923460;2023-07-31T02:05:27;20.20;94.10
6536;DHT22;34330;52.08032700;5.40923460;2023-07-31T02:07:55;20.20;93.90
6536;DHT22;34330;52.08032700;5.40923460;2023-07-31T02:10:23;20.20;93.90
6536;DHT22;34330;52.08032700;5.40923460;2023-07-31T02:12:51;20.20;94.00
6536;DHT22;34330;52.08032700;5.40923460;2023-07-31T02:15:20;20.10;93.90
6536;DHT22;34330;52.08032700;5.40923460;2023-07-31T02:17:49;20.10;93.90
6536;DHT22;34330;52.08032700;5.40923460;2023-07-31T02:20:17;20.10;94.00
6536;DHT22;34330;52.08032700;5.40923460;2023-07-31T02:22:45;20.10;93.90
6536;DHT22;34330;52.08032700;5.40923460;2023-07-31T02:25:13;20.10;93.90
6536;DHT22;34330;52.08032700;5.40923460;2023-07-31T02:27:41;20.10;94.00
6536;DHT22;34330;52.08032700;5.40923460;2023-07-31T02:30:11;20.10;94.10
6536;DHT22;34330;52.08032700;5.40923460;2023-07-31T02:32:39;20.10;94.20
6536;DHT22;34330;52.08032700;5.40923460;2023-07-31T02:35:09;20.10;94.10
6536;DHT22;34330;52.08032700;5.40923460;2023-07-31T02:37:38;20.10;94.30
6536;DHT22;34330;52.08032700;5.40923460;2023-07-31T02:40:06;20.10;94.20
6536;DHT22;34330;52.08032700;5.40923460;2023-07-31T02:42:35;20.10;94.30
6536;DHT22;34330;52.08032700;5.40923460;2023-07-31T02:45:04;20.10;94.30
6536;DHT22;34330;52.08032700;5.40923460;2023-07-31T02:47:32;20.10;94.40
6536;DHT22;34330;52.08032700;5.40923460;2023-07-31T02:50:00;20.10;94.20
6536;DHT22;34330;52.08032700;5.40923460;2023-07-31T02:52:29;20.10;94.20
6536;DHT22;34330;52.08032700;5.40923460;2023-07-31T02:54:58;20.10;94.40
6536;DHT22;34330;52.08032700;5.40923460;2023-07-31T02:57:26;20.10;94.40
6536;DHT22;34330;52.08032700;5.40923460;2023-07-31T02:59:54;20.20;94.40
6536;DHT22;34330;52.08032700;5.40923460;2023-07-31T03:02:22;20.10;94.30
6536;DHT22;34330;52.08032700;5.40923460;2023-07-31T03:04:50;20.20;94.30
6536;DHT22;34330;52.08032700;5.40923460;2023-07-31T03:07:18;20.20;94.30
6536;DHT22;34330;52.08032700;5.40923460;2023-07-31T03:09:47;20.10;94.10
6536;DHT22;34330;52.08032700;5.40923460;2023-07-31T03:12:15;20.20;94.10
6536;DHT22;34330;52.08032700;5.40923460;2023-07-31T03:14:43;20.10;94.00
6536;DHT22;34330;52.08032700;5.40923460;2023-07-31T03:17:11;20.10;94.00
6536;DHT22;34330;52.08032700;5.40923460;2023-07-31T03:19:40;20.10;94.00
6536;DHT22;34330;52.08032700;5.40923460;2023-07-31T03:22:08;20.10;94.00
6536;DHT22;34330;52.08032700;5.40923460;2023-07-31T03:24:36;20.10;94.00
6536;DHT22;34330;52.08032700;5.40923460;2023-07-31T03:27:06;20.10;94.00
6536;DHT22;34330;52.08032700;5.40923460;2023-07-31T03:29:36;20.10;94.10
6536;DHT22;34330;52.08032700;5.40923460;2023-07-31T03:32:05;20.10;94.00
6536;DHT22;34330;52.08032700;5.40923460;2023-07-31T03:34:33;20.10;93.90
6536;DHT22;34330;52.08032700;5.40923460;2023-07-31T03:37:01;20.00;93.80
6536;DHT22;34330;52.08032700;5.40923460;2023-07-31T03:39:29;20.10;93.90
6536;DHT22;34330;52.08032700;5.40923460;2023-07-31T03:41:57;20.00;93.80
6536;DHT22;34330;52.08032700;5.40923460;2023-07-31T03:44:26;20.00;93.70
6536;DHT22;34330;52.08032700;5.40923460;2023-07-31T03:46:55;20.00;93.80
6536;DHT22;34330;52.08032700;5.40923460;2023-07-31T03:49:25;20.00;93.90
6536;DHT22;34330;52.08032700;5.40923460;2023-07-31T03:51:54;20.00;93.90
6536;DHT22;34330;52.08032700;5.40923460;2023-07-31T03:54:22;20.00;93.90
6536;DHT22;34330;52.08032700;5.40923460;2023-07-31T03:56:50;20.00;93.80
6536;DHT22;34330;52.08032700;5.40923460;2023-07-31T03:59:18;19.90;93.70
6536;DHT22;34330;52.08032700;5.40923460;2023-07-31T04:01:47;19.60;93.60
6536;DHT22;34330;52.08032700;5.40923460;2023-07-31T04:04:15;20.00;93.80
6536;DHT22;34330;52.08032700;5.40923460;2023-07-31T04:06:43;19.90;93.70
6536;DHT22;34330;52.08032700;5.40923460;2023-07-31T04:09:11;21.70;94.50
6536;DHT22;34330;52.08032700;5.40923460;2023-07-31T04:11:39;20.00;93.70
6536;DHT22;34330;52.08032700;5.40923460;2023-07-31T04:14:07;19.90;93.60
6536;DHT22;34330;52.08032700;5.40923460;2023-07-31T04:16:35;19.90;93.60
6536;DHT22;34330;52.08032700;5.40923460;2023-07-31T04:19:05;19.90;93.60
6536;DHT22;34330;52.08032700;5.40923460;2023-07-31T04:21:33;19.90;93.60
6536;DHT22;34330;52.08032700;5.40923460;2023-07-31T04:24:01;19.90;93.50
6536;DHT22;34330;52.08032700;5.40923460;2023-07-31T04:26:29;19.90;93.60
6536;DHT22;34330;52.08032700;5.40923460;2023-07-31T04:28:57;19.90;93.90
6536;DHT22;34330;52.08032700;5.40923460;2023-07-31T04:31:25;19.90;93.90
6536;DHT22;34330;52.08032700;5.40923460;2023-07-31T04:33:56;19.90;93.60
6536;DHT22;34330;52.08032700;5.40923460;2023-07-31T04:36:25;19.90;93.60
6536;DHT22;34330;52.08032700;5.40923460;2023-07-31T04:38:53;19.90;93.70
6536;DHT22;34330;52.08032700;5.40923460;2023-07-31T04:41:21;19.90;93.60
6536;DHT22;34330;52.08032700;5.40923460;2023-07-31T04:43:49;19.90;93.80
6536;DHT22;34330;52.08032700;5.40923460;2023-07-31T04:46:17;18.80;93.40
6536;DHT22;34330;52.08032700;5.40923460;2023-07-31T04:48:45;19.90;93.80
6536;DHT22;34330;52.08032700;5.40923460;2023-07-31T04:51:13;19.90;93.90
6536;DHT22;34330;52.08032700;5.40923460;2023-07-31T04:53:43;19.90;93.90
6536;DHT22;34330;52.08032700;5.40923460;2023-07-31T04:56:11;19.90;93.90
6536;DHT22;34330;52.08032700;5.40923460;2023-07-31T04:58:39;19.90;94.00
6536;DHT22;34330;52.08032700;5.40923460;2023-07-31T05:01:09;19.90;93.90
6536;DHT22;34330;52.08032700;5.40923460;2023-07-31T05:03:37;19.90;94.00
6536;DHT22;34330;52.08032700;5.40923460;2023-07-31T05:06:05;20.00;94.00
6536;DHT22;34330;52.08032700;5.40923460;2023-07-31T05:08:34;20.00;94.00
6536;DHT22;34330;52.08032700;5.40923460;2023-07-31T05:11:03;20.00;94.00
6536;DHT22;34330;52.08032700;5.40923460;2023-07-31T05:13:31;20.00;94.00
6536;DHT22;34330;52.08032700;5.40923460;2023-07-31T05:15:59;20.00;93.90
6536;DHT22;34330;52.08032700;5.40923460;2023-07-31T05:18:29;20.00;94.00
6536;DHT22;34330;52.08032700;5.40923460;2023-07-31T05:20:57;20.00;94.00
6536;DHT22;34330;52.08032700;5.40923460;2023-07-31T05:23:25;19.90;94.00
6536;DHT22;34330;52.08032700;5.40923460;2023-07-31T05:25:54;19.90;93.90
6536;DHT22;34330;52.08032700;5.40923460;2023-07-31T05:28:23;19.90;94.00
6536;DHT22;34330;52.08032700;5.40923460;2023-07-31T05:30:51;19.90;94.00
6536;DHT22;34330;52.08032700;5.40923460;2023-07-31T05:33:19;19.90;94.00
6536;DHT22;34330;52.08032700;5.40923460;2023-07-31T05:35:48;19.90;94.00
6536;DHT22;34330;52.08032700;5.40923460;2023-07-31T05:38:16;19.90;94.40
6536;DHT22;34330;52.08032700;5.40923460;2023-07-31T05:40:44;19.90;94.10
6536;DHT22;34330;52.08032700;5.40923460;2023-07-31T05:43:12;19.90;94.20
6536;DHT22;34330;52.08032700;5.40923460;2023-07-31T05:45:42;19.90;94.20
6536;DHT22;34330;52.08032700;5.40923460;2023-07-31T05:48:10;19.90;94.40
6536;DHT22;34330;52.08032700;5.40923460;2023-07-31T05:50:38;19.90;94.30
6536;DHT22;34330;52.08032700;5.40923460;2023-07-31T05:53:06;19.80;94.30
6536;DHT22;34330;52.08032700;5.40923460;2023-07-31T05:55:35;19.80;94.30
6536;DHT22;34330;52.08032700;5.40923460;2023-07-31T05:58:03;19.80;94.40
6536;DHT22;34330;52.08032700;5.40923460;2023-07-31T06:00:31;19.80;94.40
6536;DHT22;34330;52.08032700;5.40923460;2023-07-31T06:03:00;19.80;94.40
6536;DHT22;34330;52.08032700;5.40923460;2023-07-31T06:05:31;19.80;94.40
6536;DHT22;34330;52.08032700;5.40923460;2023-07-31T06:07:59;19.80;94.60
6536;DHT22;34330;52.08032700;5.40923460;2023-07-31T06:10:28;19.80;94.50
6536;DHT22;34330;52.08032700;5.40923460;2023-07-31T06:12:56;19.80;94.60
6536;DHT22;34330;52.08032700;5.40923460;2023-07-31T06:15:24;19.80;94.70
6536;DHT22;34330;52.08032700;5.40923460;2023-07-31T06:17:52;19.80;94.80
6536;DHT22;34330;52.08032700;5.40923460;2023-07-31T06:20:22;19.80;94.80
6536;DHT22;34330;52.08032700;5.40923460;2023-07-31T06:22:50;19.80;95.20
6536;DHT22;34330;52.08032700;5.40923460;2023-07-31T06:25:18;19.80;94.80
6536;DHT22;34330;52.08032700;5.40923460;2023-07-31T06:27:46;19.80;94.90
6536;DHT22;34330;52.08032700;5.40923460;2023-07-31T06:30:14;19.80;94.80
6536;DHT22;34330;52.08032700;5.40923460;2023-07-31T06:32:42;19.80;94.80
6536;DHT22;34330;52.08032700;5.40923460;2023-07-31T06:35:10;19.80;94.80
6536;DHT22;34330;52.08032700;5.40923460;2023-07-31T06:37:40;19.80;94.90
6536;DHT22;34330;52.08032700;5.40923460;2023-07-31T06:40:11;19.80;94.90
6536;DHT22;34330;52.08032700;5.40923460;2023-07-31T06:42:39;19.90;94.90
6536;DHT22;34330;52.08032700;5.40923460;2023-07-31T06:45:08;19.90;95.00
6536;DHT22;34330;52.08032700;5.40923460;2023-07-31T06:47:39;19.90;95.20
6536;DHT22;34330;52.08032700;5.40923460;2023-07-31T06:50:08;19.80;95.20
6536;DHT22;34330;52.08032700;5.40923460;2023-07-31T06:52:36;19.90;95.20
6536;DHT22;34330;52.08032700;5.40923460;2023-07-31T06:55:17;19.90;95.20
6536;DHT22;34330;52.08032700;5.40923460;2023-07-31T06:57:46;19.90;95.50
6536;DHT22;34330;52.08032700;5.40923460;2023-07-31T07:00:15;19.90;95.30
6536;DHT22;34330;52.08032700;5.40923460;2023-07-31T07:02:44;19.90;95.40
6536;DHT22;34330;52.08032700;5.40923460;2023-07-31T07:05:14;19.90;95.50
6536;DHT22;34330;52.08032700;5.40923460;2023-07-31T07:07:43;19.90;95.40
6536;DHT22;34330;52.08032700;5.40923460;2023-07-31T07:10:12;20.00;95.40
6536;DHT22;34330;52.08032700;5.40923460;2023-07-31T07:12:40;20.00;95.60
6536;DHT22;34330;52.08032700;5.40923460;2023-07-31T07:15:09;20.00;95.60
6536;DHT22;34330;52.08032700;5.40923460;2023-07-31T07:17:37;20.10;95.60
6536;DHT22;34330;52.08032700;5.40923460;2023-07-31T07:20:07;20.10;95.50
6536;DHT22;34330;52.08032700;5.40923460;2023-07-31T07:22:35;20.10;95.60
6536;DHT22;34330;52.08032700;5.40923460;2023-07-31T07:25:04;20.10;95.60
6536;DHT22;34330;52.08032700;5.40923460;2023-07-31T07:27:35;20.10;95.70
6536;DHT22;34330;52.08032700;5.40923460;2023-07-31T07:30:04;20.20;95.70
6536;DHT22;34330;52.08032700;5.40923460;2023-07-31T07:32:32;20.20;95.70
6536;DHT22;34330;52.08032700;5.40923460;2023-07-31T07:35:00;20.20;95.60
6536;DHT22;34330;52.08032700;5.40923460;2023-07-31T07:37:28;20.20;95.60
6536;DHT22;34330;52.08032700;5.40923460;2023-07-31T07:39:57;20.20;95.60
6536;DHT22;34330;52.08032700;5.40923460;2023-07-31T07:42:26;20.20;95.50
6536;DHT22;34330;52.08032700;5.40923460;2023-07-31T07:45:00;20.20;95.60
6536;DHT22;34330;52.08032700;5.40923460;2023-07-31T07:47:28;20.20;95.90
6536;DHT22;34330;52.08032700;5.40923460;2023-07-31T07:49:56;20.20;95.70
6536;DHT22;34330;52.08032700;5.40923460;2023-07-31T07:52:24;20.20;95.70
6536;DHT22;34330;52.08032700;5.40923460;2023-07-31T07:54:53;20.30;95.80
6536;DHT22;34330;52.08032700;5.40923460;2023-07-31T07:57:21;20.30;95.90
6536;DHT22;34330;52.08032700;5.40923460;2023-07-31T07:59:49;20.30;96.00
6536;DHT22;34330;52.08032700;5.40923460;2023-07-31T08:02:18;20.30;96.00
6536;DHT22;34330;52.08032700;5.40923460;2023-07-31T08:04:46;20.40;96.10
6536;DHT22;34330;52.08032700;5.40923460;2023-07-31T08:07:14;20.40;95.90
6536;DHT22;34330;52.08032700;5.40923460;2023-07-31T08:09:42;20.40;95.90
6536;DHT22;34330;52.08032700;5.40923460;2023-07-31T08:12:11;20.40;95.90
6536;DHT22;34330;52.08032700;5.40923460;2023-07-31T08:14:39;20.40;96.00
6536;DHT22;34330;52.08032700;5.40923460;2023-07-31T08:17:08;20.50;96.00
6536;DHT22;34330;52.08032700;5.40923460;2023-07-31T08:19:37;20.50;96.00
6536;DHT22;34330;52.08032700;5.40923460;2023-07-31T08:22:06;20.50;96.00
6536;DHT22;34330;52.08032700;5.40923460;2023-07-31T08:24:34;20.50;96.00
6536;DHT22;34330;52.08032700;5.40923460;2023-07-31T08:27:02;20.50;96.00
6536;DHT22;34330;52.08032700;5.40923460;2023-07-31T08:29:30;20.60;96.00
6536;DHT22;34330;52.08032700;5.40923460;2023-07-31T08:31:58;20.60;96.10
6536;DHT22;34330;52.08032700;5.40923460;2023-07-31T08:34:26;20.60;96.10
6536;DHT22;34330;52.08032700;5.40923460;2023-07-31T08:36:55;20.60;96.20
6536;DHT22;34330;52.08032700;5.40923460;2023-07-31T08:39:24;20.70;96.60
6536;DHT22;34330;52.08032700;5.40923460;2023-07-31T08:41:58;20.70;96.20
6536;DHT22;34330;52.08032700;5.40923460;2023-07-31T08:44:27;20.70;96.50
6536;DHT22;34330;52.08032700;5.40923460;2023-07-31T08:46:57;20.70;96.30
6536;DHT22;34330;52.08032700;5.40923460;2023-07-31T08:49:26;20.70;96.40
6536;DHT22;34330;52.08032700;5.40923460;2023-07-31T08:51:59;20.70;96.50
6536;DHT22;34330;52.08032700;5.40923460;2023-07-31T08:54:28;20.90;96.60
6536;DHT22;34330;52.08032700;5.40923460;2023-07-31T08:56:58;20.80;96.60
6536;DHT22;34330;52.08032700;5.40923460;2023-07-31T08:59:29;20.80;96.60
6536;DHT22;34330;52.08032700;5.40923460;2023-07-31T09:02:03;20.80;96.40
6536;DHT22;34330;52.08032700;5.40923460;2023-07-31T09:04:34;20.90;96.40
6536;DHT22;34330;52.08032700;5.40923460;2023-07-31T09:07:05;20.90;96.20
6536;DHT22;34330;52.08032700;5.40923460;2023-07-31T09:09:34;21.00;96.40
6536;DHT22;34330;52.08032700;5.40923460;2023-07-31T09:12:03;21.00;96.20
6536;DHT22;34330;52.08032700;5.40923460;2023-07-31T09:14:31;21.00;96.10
6536;DHT22;34330;52.08032700;5.40923460;2023-07-31T09:17:00;21.00;96.10
6536;DHT22;34330;52.08032700;5.40923460;2023-07-31T09:19:33;21.00;96.00
6536;DHT22;34330;52.08032700;5.40923460;2023-07-31T09:22:05;21.00;96.00
6536;DHT22;34330;52.08032700;5.40923460;2023-07-31T09:24:34;21.00;96.10
6536;DHT22;34330;52.08032700;5.40923460;2023-07-31T09:27:02;21.00;96.10
6536;DHT22;34330;52.08032700;5.40923460;2023-07-31T09:29:30;21.00;96.10
6536;DHT22;34330;52.08032700;5.40923460;2023-07-31T09:31:58;21.00;96.20
6536;DHT22;34330;52.08032700;5.40923460;2023-07-31T09:34:30;21.00;96.10
6536;DHT22;34330;52.08032700;5.40923460;2023-07-31T09:37:05;21.00;96.30
6536;DHT22;34330;52.08032700;5.40923460;2023-07-31T09:39:46;21.10;96.20
6536;DHT22;34330;52.08032700;5.40923460;2023-07-31T09:42:24;21.00;96.60
6536;DHT22;34330;52.08032700;5.40923460;2023-07-31T09:44:52;21.10;96.90
6536;DHT22;34330;52.08032700;5.40923460;2023-07-31T09:47:23;21.20;96.70
6536;DHT22;34330;52.08032700;5.40923460;2023-07-31T09:49:53;21.20;96.70
6536;DHT22;34330;52.08032700;5.40923460;2023-07-31T09:52:22;21.30;96.70
6536;DHT22;34330;52.08032700;5.40923460;2023-07-31T09:54:50;21.30;96.50
6536;DHT22;34330;52.08032700;5.40923460;2023-07-31T09:57:21;21.30;96.30
6536;DHT22;34330;52.08032700;5.40923460;2023-07-31T09:59:50;21.30;96.40
6536;DHT22;34330;52.08032700;5.40923460;2023-07-31T10:02:21;21.40;96.50
6536;DHT22;34330;52.08032700;5.40923460;2023-07-31T10:04:50;21.40;96.60
6536;DHT22;34330;52.08032700;5.40923460;2023-07-31T10:07:22;21.50;96.90
6536;DHT22;34330;52.08032700;5.40923460;2023-07-31T10:09:51;21.50;96.50
6536;DHT22;34330;52.08032700;5.40923460;2023-07-31T10:12:23;21.50;96.40
6536;DHT22;34330;52.08032700;5.40923460;2023-07-31T10:14:55;21.60;96.50
6536;DHT22;34330;52.08032700;5.40923460;2023-07-31T10:17:24;21.60;96.40
6536;DHT22;34330;52.08032700;5.40923460;2023-07-31T10:19:53;21.60;96.40
6536;DHT22;34330;52.08032700;5.40923460;2023-07-31T10:22:22;21.70;96.50
6536;DHT22;34330;52.08032700;5.40923460;2023-07-31T10:24:52;21.70;96.50
6536;DHT22;34330;52.08032700;5.40923460;2023-07-31T10:27:22;21.70;96.30
6536;DHT22;34330;52.08032700;5.40923460;2023-07-31T10:29:50;21.70;96.10
6536;DHT22;34330;52.08032700;5.40923460;2023-07-31T10:32:20;21.80;96.10
6536;DHT22;34330;52.08032700;5.40923460;2023-07-31T10:34:50;21.80;96.10
6536;DHT22;34330;52.08032700;5.40923460;2023-07-31T10:37:28;21.80;96.00
6536;DHT22;34330;52.08032700;5.40923460;2023-07-31T10:39:58;21.80;96.10
6536;DHT22;34330;52.08032700;5.40923460;2023-07-31T10:42:32;21.70;96.00
6536;DHT22;34330;52.08032700;5.40923460;2023-07-31T10:45:03;21.80;96.20
6536;DHT22;34330;52.08032700;5.40923460;2023-07-31T10:47:36;21.80;96.30
6536;DHT22;34330;52.08032700;5.40923460;2023-07-31T10:50:18;21.70;96.70
6536;DHT22;34330;52.08032700;5.40923460;2023-07-31T10:52:50;21.80;97.00
6536;DHT22;34330;52.08032700;5.40923460;2023-07-31T10:55:26;21.80;96.70
6536;DHT22;34330;52.08032700;5.40923460;2023-07-31T10:57:56;21.90;96.60
6536;DHT22;34330;52.08032700;5.40923460;2023-07-31T11:00:26;21.90;96.40
6536;DHT22;34330;52.08032700;5.40923460;2023-07-31T11:02:59;22.00;96.40
6536;DHT22;34330;52.08032700;5.40923460;2023-07-31T11:06:01;22.00;96.50
6536;DHT22;34330;52.08032700;5.40923460;2023-07-31T11:08:33;22.00;96.40
6536;DHT22;34330;52.08032700;5.40923460;2023-07-31T11:11:11;21.90;96.10
6536;DHT22;34330;52.08032700;5.40923460;2023-07-31T11:13:41;22.00;96.20
6536;DHT22;34330;52.08032700;5.40923460;2023-07-31T11:16:13;22.10;96.20
6536;DHT22;34330;52.08032700;5.40923460;2023-07-31T11:18:42;22.10;96.00
6536;DHT22;34330;52.08032700;5.40923460;2023-07-31T11:21:12;22.10;96.10
6536;DHT22;34330;52.08032700;5.40923460;2023-07-31T11:23:45;22.10;96.20
6536;DHT22;34330;52.08032700;5.40923460;2023-07-31T11:26:14;22.10;96.10
6536;DHT22;34330;52.08032700;5.40923460;2023-07-31T11:28:42;22.00;95.90
6536;DHT22;34330;52.08032700;5.40923460;2023-07-31T11:31:11;22.00;96.30
6536;DHT22;34330;52.08032700;5.40923460;2023-07-31T11:33:39;22.00;96.10
6536;DHT22;34330;52.08032700;5.40923460;2023-07-31T11:36:14;22.00;96.00
6536;DHT22;34330;52.08032700;5.40923460;2023-07-31T11:38:44;22.00;96.20
6536;DHT22;34330;52.08032700;5.40923460;2023-07-31T11:41:14;22.00;96.30
6536;DHT22;34330;52.08032700;5.40923460;2023-07-31T11:43:42;21.90;96.30
6536;DHT22;34330;52.08032700;5.40923460;2023-07-31T11:46:11;21.90;96.20
6536;DHT22;34330;52.08032700;5.40923460;2023-07-31T11:48:40;21.90;96.40
6536;DHT22;34330;52.08032700;5.40923460;2023-07-31T11:51:10;21.90;96.40
6536;DHT22;34330;52.08032700;5.40923460;2023-07-31T11:53:42;21.90;96.80
6536;DHT22;34330;52.08032700;5.40923460;2023-07-31T11:56:15;22.00;96.50
6536;DHT22;34330;52.08032700;5.40923460;2023-07-31T11:58:46;22.00;96.50
6536;DHT22;34330;52.08032700;5.40923460;2023-07-31T12:01:15;22.00;96.60
6536;DHT22;34330;52.08032700;5.40923460;2023-07-31T12:03:44;21.90;96.60
6536;DHT22;34330;52.08032700;5.40923460;2023-07-31T12:06:13;22.00;96.60
6536;DHT22;34330;52.08032700;5.40923460;2023-07-31T12:08:41;22.00;96.40
6536;DHT22;34330;52.08032700;5.40923460;2023-07-31T12:11:10;22.10;96.50
6536;DHT22;34330;52.08032700;5.40923460;2023-07-31T12:13:39;22.10;96.30
6536;DHT22;34330;52.08032700;5.40923460;2023-07-31T12:16:08;22.10;96.60
6536;DHT22;34330;52.08032700;5.40923460;2023-07-31T12:18:37;22.10;96.30
6536;DHT22;34330;52.08032700;5.40923460;2023-07-31T12:21:06;22.10;96.50
6536;DHT22;34330;52.08032700;5.40923460;2023-07-31T12:23:38;22.10;96.60
6536;DHT22;34330;52.08032700;5.40923460;2023-07-31T12:26:10;22.10;96.50
6536;DHT22;34330;52.08032700;5.40923460;2023-07-31T12:28:41;22.10;96.40
6536;DHT22;34330;52.08032700;5.40923460;2023-07-31T12:31:11;22.20;96.40
6536;DHT22;34330;52.08032700;5.40923460;2023-07-31T12:33:41;22.20;96.30
6536;DHT22;34330;52.08032700;5.40923460;2023-07-31T12:36:10;22.20;96.30
6536;DHT22;34330;52.08032700;5.40923460;2023-07-31T12:38:39;22.20;96.30
6536;DHT22;34330;52.08032700;5.40923460;2023-07-31T12:41:08;22.20;96.30
6536;DHT22;34330;52.08032700;5.40923460;2023-07-31T12:43:37;22.10;96.40
6536;DHT22;34330;52.08032700;5.40923460;2023-07-31T12:46:08;22.10;96.70
6536;DHT22;34330;52.08032700;5.40923460;2023-07-31T12:48:37;22.20;96.70
6536;DHT22;34330;52.08032700;5.40923460;2023-07-31T12:51:05;22.30;96.60
6536;DHT22;34330;52.08032700;5.40923460;2023-07-31T12:53:34;22.30;96.40
6536;DHT22;34330;52.08032700;5.40923460;2023-07-31T12:56:03;22.40;96.50
6536;DHT22;34330;52.08032700;5.40923460;2023-07-31T12:58:31;22.40;96.50
6536;DHT22;34330;52.08032700;5.40923460;2023-07-31T13:00:59;22.40;96.40
6536;DHT22;34330;52.08032700;5.40923460;2023-07-31T13:03:30;22.50;96.30
6536;DHT22;34330;52.08032700;5.40923460;2023-07-31T13:05:58;22.50;96.20
6536;DHT22;34330;52.08032700;5.40923460;2023-07-31T13:08:26;22.50;96.20
6536;DHT22;34330;52.08032700;5.40923460;2023-07-31T13:10:54;22.50;96.30
6536;DHT22;34330;52.08032700;5.40923460;2023-07-31T13:13:23;22.50;96.40
6536;DHT22;34330;52.08032700;5.40923460;2023-07-31T13:15:51;22.60;96.80
6536;DHT22;34330;52.08032700;5.40923460;2023-07-31T13:18:19;22.60;96.40
6536;DHT22;34330;52.08032700;5.40923460;2023-07-31T13:20:48;22.70;96.30
6536;DHT22;34330;52.08032700;5.40923460;2023-07-31T13:23:16;22.60;96.30
6536;DHT22;34330;52.08032700;5.40923460;2023-07-31T13:25:44;22.70;96.20
6536;DHT22;34330;52.08032700;5.40923460;2023-07-31T13:28:12;22.70;96.20
6536;DHT22;34330;52.08032700;5.40923460;2023-07-31T13:30:41;22.70;96.20
6536;DHT22;34330;52.08032700;5.40923460;2023-07-31T13:33:09;22.70;96.20
6536;DHT22;34330;52.08032700;5.40923460;2023-07-31T13:35:59;23.10;96.30
6536;DHT22;34330;52.08032700;5.40923460;2023-07-31T13:38:27;22.80;96.30
6536;DHT22;34330;52.08032700;5.40923460;2023-07-31T13:40:55;22.80;96.30
6536;DHT22;34330;52.08032700;5.40923460;2023-07-31T13:43:24;22.80;96.20
6536;DHT22;34330;52.08032700;5.40923460;2023-07-31T13:45:53;23.00;96.20